THY59E LTFM-VABB
Flight info
| Callsign | THY59E |
|---|---|
| Flight time | N/A |
| Altitude | 35000 |
| Route | ATBES DCT FM020 DCT FM021 DCT FM074 DCT FM044 DCT LIDMU DCT NOTVI DCT VICEN DCT ASMAP UL333 LATGA DCT TBN UN61 NOLGA DCT BARAD M747 SULEL N449 DUKAN B449 HOFNI/N0487F370 B449 RANAH L750 ZB G202 RK P628 VIKIT Z8 AAE/N0493F380 R458 BVR/N0496F370 R458 BOFIN POKON2A |
| Aircraft | B77W/H-SDE1E2E3FGHIJ2J3J4J5M1RWXY/LB1D1 |
Departure
| Time | N/A |
|---|---|
| Airport | İstanbul Airport (LTFM) |
Arrival
| Time | 2026-05-06 15:23 |
|---|---|
| Airport | Chhatrapati Shivaji Maharaj International Airport (VABB) |
| Time | Latitude | Longitude | Altitude | Speed | Heading |
|---|---|---|---|---|---|
| 2026-05-06 14:01 | 28.18970 | 70.68841 | 34678 ft | 589 kts | 115° |
| 2026-05-06 14:01 | 28.17173 | 70.73002 | 34678 ft | 589 kts | 114° |
| 2026-05-06 14:02 | 28.13576 | 70.81346 | 34678 ft | 588 kts | 114° |
| 2026-05-06 14:02 | 28.09992 | 70.89667 | 34682 ft | 587 kts | 114° |
| 2026-05-06 14:03 | 28.06433 | 70.97912 | 34690 ft | 586 kts | 115° |
| 2026-05-06 14:03 | 28.02849 | 71.06197 | 34681 ft | 586 kts | 115° |
| 2026-05-06 14:04 | 27.99237 | 71.14525 | 34686 ft | 586 kts | 115° |
| 2026-05-06 14:04 | 27.95648 | 71.22787 | 34687 ft | 585 kts | 115° |
| 2026-05-06 14:05 | 27.92073 | 71.31000 | 34689 ft | 585 kts | 115° |
| 2026-05-06 14:05 | 27.88489 | 71.39217 | 34690 ft | 585 kts | 115° |
| 2026-05-06 14:06 | 27.84862 | 71.47354 | 34686 ft | 586 kts | 116° |
| 2026-05-06 14:06 | 27.81074 | 71.55350 | 34691 ft | 586 kts | 117° |
| 2026-05-06 14:07 | 27.77903 | 71.62009 | 34689 ft | 586 kts | 117° |
| 2026-05-06 14:07 | 27.73475 | 71.71407 | 34694 ft | 586 kts | 117° |
| 2026-05-06 14:08 | 27.69648 | 71.79541 | 34692 ft | 587 kts | 117° |
| 2026-05-06 14:08 | 27.67561 | 71.83433 | 34679 ft | 585 kts | 128° |
| 2026-05-06 14:08 | 27.64741 | 71.86672 | 34691 ft | 582 kts | 144° |
| 2026-05-06 14:09 | 27.61350 | 71.89084 | 34701 ft | 576 kts | 157° |
| 2026-05-06 14:09 | 27.57648 | 71.90705 | 34690 ft | 569 kts | 170° |
| 2026-05-06 14:09 | 27.53799 | 71.91368 | 34699 ft | 556 kts | 181° |
| 2026-05-06 14:09 | 27.49938 | 71.91703 | 34702 ft | 558 kts | 181° |
| 2026-05-06 14:10 | 27.42176 | 71.92427 | 34697 ft | 562 kts | 180° |
| 2026-05-06 14:10 | 27.35899 | 71.93104 | 34698 ft | 564 kts | 180° |
| 2026-05-06 14:11 | 27.28085 | 71.94012 | 34699 ft | 565 kts | 179° |
| 2026-05-06 14:11 | 27.20264 | 71.94931 | 34697 ft | 566 kts | 180° |
| 2026-05-06 14:12 | 27.12428 | 71.95841 | 34697 ft | 565 kts | 180° |
| 2026-05-06 14:12 | 27.04611 | 71.96740 | 34702 ft | 564 kts | 180° |
| 2026-05-06 14:13 | 26.96821 | 71.97633 | 34700 ft | 563 kts | 180° |
| 2026-05-06 14:13 | 26.89028 | 71.98525 | 34699 ft | 562 kts | 180° |
| 2026-05-06 14:14 | 26.81245 | 71.99415 | 34698 ft | 562 kts | 180° |
| 2026-05-06 14:14 | 26.73473 | 72.00305 | 34702 ft | 561 kts | 180° |
| 2026-05-06 14:15 | 26.65706 | 72.01193 | 34706 ft | 561 kts | 180° |
| 2026-05-06 14:15 | 26.57933 | 72.02080 | 34701 ft | 561 kts | 180° |
| 2026-05-06 14:16 | 26.50167 | 72.02964 | 34709 ft | 561 kts | 180° |
| 2026-05-06 14:16 | 26.42399 | 72.03847 | 34703 ft | 561 kts | 180° |
| 2026-05-06 14:17 | 26.34633 | 72.04728 | 34703 ft | 561 kts | 180° |
| 2026-05-06 14:17 | 26.26872 | 72.05608 | 34705 ft | 561 kts | 180° |
| 2026-05-06 14:18 | 26.19133 | 72.06484 | 34700 ft | 560 kts | 180° |
| 2026-05-06 14:18 | 26.11425 | 72.07356 | 34704 ft | 560 kts | 180° |
| 2026-05-06 14:19 | 26.03672 | 72.08231 | 34709 ft | 560 kts | 180° |
| 2026-05-06 14:19 | 25.95924 | 72.09105 | 34705 ft | 560 kts | 180° |
| 2026-05-06 14:20 | 25.88177 | 72.09977 | 34714 ft | 559 kts | 180° |
| 2026-05-06 14:20 | 25.80438 | 72.10848 | 34719 ft | 559 kts | 180° |
| 2026-05-06 14:21 | 25.72685 | 72.11719 | 34719 ft | 560 kts | 180° |
| 2026-05-06 14:21 | 25.64940 | 72.12591 | 34722 ft | 560 kts | 180° |
| 2026-05-06 14:22 | 25.57191 | 72.13478 | 34726 ft | 560 kts | 180° |
| 2026-05-06 14:22 | 25.49442 | 72.14369 | 34723 ft | 560 kts | 180° |
| 2026-05-06 14:23 | 25.41695 | 72.15256 | 34734 ft | 559 kts | 180° |
| 2026-05-06 14:23 | 25.33906 | 72.16144 | 34733 ft | 559 kts | 180° |
| 2026-05-06 14:24 | 25.26217 | 72.17020 | 34735 ft | 559 kts | 180° |
| 2026-05-06 14:24 | 25.18488 | 72.17900 | 34740 ft | 558 kts | 180° |
| 2026-05-06 14:25 | 25.10758 | 72.18778 | 34743 ft | 558 kts | 180° |
| 2026-05-06 14:25 | 25.03047 | 72.19406 | 34747 ft | 555 kts | 183° |
| 2026-05-06 14:26 | 24.95332 | 72.19808 | 34750 ft | 554 kts | 184° |
| 2026-05-06 14:26 | 24.87627 | 72.20226 | 34766 ft | 555 kts | 183° |
| 2026-05-06 14:27 | 24.79918 | 72.20699 | 34762 ft | 555 kts | 182° |
| 2026-05-06 14:27 | 24.72210 | 72.21196 | 34764 ft | 555 kts | 182° |
| 2026-05-06 14:28 | 24.64506 | 72.21692 | 34770 ft | 554 kts | 182° |
| 2026-05-06 14:28 | 24.56809 | 72.22182 | 34766 ft | 554 kts | 182° |
| 2026-05-06 14:29 | 24.49128 | 72.22667 | 34767 ft | 553 kts | 182° |
| 2026-05-06 14:29 | 24.41445 | 72.23152 | 34764 ft | 553 kts | 182° |
| 2026-05-06 14:30 | 24.33800 | 72.23634 | 34762 ft | 552 kts | 182° |
| 2026-05-06 14:30 | 24.26092 | 72.24121 | 34758 ft | 552 kts | 182° |
| 2026-05-06 14:31 | 24.18431 | 72.24603 | 34757 ft | 551 kts | 182° |
| 2026-05-06 14:31 | 24.10788 | 72.25083 | 34753 ft | 551 kts | 182° |
| 2026-05-06 14:32 | 24.03210 | 72.25559 | 34753 ft | 551 kts | 182° |
| 2026-05-06 14:32 | 23.95570 | 72.26039 | 34741 ft | 550 kts | 182° |
| 2026-05-06 14:33 | 23.87922 | 72.26518 | 34740 ft | 549 kts | 182° |
| 2026-05-06 14:33 | 23.80291 | 72.26996 | 34734 ft | 549 kts | 182° |
| 2026-05-06 14:34 | 23.72678 | 72.27472 | 34732 ft | 548 kts | 182° |
| 2026-05-06 14:34 | 23.65068 | 72.27947 | 34733 ft | 547 kts | 182° |
| 2026-05-06 14:35 | 23.57516 | 72.28419 | 34725 ft | 546 kts | 182° |
| 2026-05-06 14:35 | 23.49932 | 72.28891 | 34726 ft | 546 kts | 182° |
| 2026-05-06 14:36 | 23.42353 | 72.29362 | 34722 ft | 545 kts | 182° |
| 2026-05-06 14:36 | 23.34785 | 72.29833 | 34725 ft | 545 kts | 182° |
| 2026-05-06 14:37 | 23.27215 | 72.30303 | 34719 ft | 544 kts | 182° |
| 2026-05-06 14:37 | 23.19665 | 72.30771 | 34735 ft | 544 kts | 182° |
| 2026-05-06 14:38 | 23.12113 | 72.31239 | 34734 ft | 543 kts | 182° |
| 2026-05-06 14:38 | 23.04561 | 72.31706 | 34730 ft | 543 kts | 182° |
| 2026-05-06 14:39 | 22.97027 | 72.32172 | 34732 ft | 543 kts | 182° |
| 2026-05-06 14:39 | 22.89492 | 72.32637 | 34733 ft | 542 kts | 182° |
| 2026-05-06 14:40 | 22.81956 | 72.33102 | 34730 ft | 542 kts | 182° |
| 2026-05-06 14:40 | 22.74419 | 72.33566 | 34735 ft | 542 kts | 181° |
| 2026-05-06 14:41 | 22.66892 | 72.34029 | 34731 ft | 542 kts | 181° |
| 2026-05-06 14:41 | 22.59364 | 72.34492 | 34736 ft | 542 kts | 181° |
| 2026-05-06 14:42 | 22.51846 | 72.34954 | 34739 ft | 541 kts | 181° |
| 2026-05-06 14:42 | 22.44378 | 72.35412 | 34740 ft | 540 kts | 181° |
| 2026-05-06 14:43 | 22.36872 | 72.35872 | 34737 ft | 540 kts | 181° |
| 2026-05-06 14:43 | 22.29325 | 72.36333 | 34740 ft | 539 kts | 181° |
| 2026-05-06 14:44 | 22.21895 | 72.36788 | 34749 ft | 539 kts | 181° |
| 2026-05-06 14:45 | 22.10669 | 72.37473 | 34752 ft | 538 kts | 181° |
| 2026-05-06 14:45 | 22.03191 | 72.37929 | 34748 ft | 538 kts | 181° |
| 2026-05-06 14:46 | 21.95719 | 72.38384 | 34750 ft | 538 kts | 181° |
| 2026-05-06 14:46 | 21.88249 | 72.38838 | 34762 ft | 538 kts | 181° |
| 2026-05-06 14:47 | 21.80776 | 72.39292 | 34748 ft | 538 kts | 181° |
| 2026-05-06 14:47 | 21.73306 | 72.39746 | 34751 ft | 537 kts | 181° |
| 2026-05-06 14:48 | 21.65842 | 72.40199 | 34751 ft | 537 kts | 181° |
| 2026-05-06 14:48 | 21.58377 | 72.40651 | 34758 ft | 537 kts | 180° |
| 2026-05-06 14:49 | 21.50924 | 72.41102 | 34766 ft | 536 kts | 180° |
| 2026-05-06 14:49 | 21.43476 | 72.41553 | 34770 ft | 536 kts | 180° |
| 2026-05-06 14:50 | 21.36028 | 72.42003 | 34773 ft | 535 kts | 180° |
| 2026-05-06 14:50 | 21.29850 | 72.42376 | 34774 ft | 535 kts | 180° |
| 2026-05-06 14:51 | 21.22425 | 72.42823 | 34774 ft | 534 kts | 180° |
| 2026-05-06 14:51 | 21.15009 | 72.43270 | 34775 ft | 533 kts | 180° |
| 2026-05-06 14:52 | 21.07605 | 72.43715 | 34778 ft | 533 kts | 180° |
| 2026-05-06 14:52 | 21.00205 | 72.44160 | 34779 ft | 532 kts | 180° |
| 2026-05-06 14:53 | 20.92811 | 72.44604 | 34782 ft | 532 kts | 180° |
| 2026-05-06 14:53 | 20.85424 | 72.45047 | 34787 ft | 532 kts | 180° |
| 2026-05-06 14:54 | 20.78038 | 72.45490 | 34787 ft | 531 kts | 180° |
| 2026-05-06 14:54 | 20.70687 | 72.45616 | 34778 ft | 524 kts | 192° |
| 2026-05-06 14:54 | 20.67218 | 72.44580 | 34798 ft | 513 kts | 205° |
| 2026-05-06 14:55 | 20.63914 | 72.43150 | 34799 ft | 514 kts | 206° |
| 2026-05-06 14:55 | 20.57274 | 72.40265 | 34790 ft | 517 kts | 205° |
| 2026-05-06 14:56 | 20.50561 | 72.37459 | 34791 ft | 519 kts | 204° |
| 2026-05-06 14:56 | 20.43864 | 72.34731 | 34793 ft | 520 kts | 204° |
| 2026-05-06 14:57 | 20.37059 | 72.31972 | 34795 ft | 520 kts | 204° |
| 2026-05-06 14:57 | 20.30300 | 72.29227 | 34790 ft | 519 kts | 204° |
| 2026-05-06 14:58 | 20.23561 | 72.26488 | 34789 ft | 519 kts | 204° |
| 2026-05-06 14:58 | 20.16822 | 72.23751 | 34793 ft | 518 kts | 203° |
| 2026-05-06 14:59 | 20.10090 | 72.21019 | 34793 ft | 518 kts | 203° |
| 2026-05-06 14:59 | 20.03363 | 72.18292 | 34794 ft | 517 kts | 203° |
| 2026-05-06 15:00 | 19.96625 | 72.15563 | 34792 ft | 518 kts | 203° |
| 2026-05-06 15:00 | 19.89954 | 72.12863 | 34791 ft | 518 kts | 203° |
| 2026-05-06 15:01 | 19.83187 | 72.10251 | 34779 ft | 518 kts | 195° |
| 2026-05-06 15:01 | 19.79596 | 72.09860 | 34790 ft | 524 kts | 179° |
| 2026-05-06 15:01 | 19.75995 | 72.10530 | 34798 ft | 528 kts | 164° |
| 2026-05-06 15:01 | 19.72649 | 72.12059 | 34751 ft | 518 kts | 150° |
| 2026-05-06 15:02 | 19.69867 | 72.14292 | 34418 ft | 489 kts | 138° |
| 2026-05-06 15:02 | 19.67428 | 72.16703 | 34065 ft | 474 kts | 137° |
| 2026-05-06 15:02 | 19.65052 | 72.19076 | 33812 ft | 465 kts | 137° |
| 2026-05-06 15:02 | 19.62709 | 72.21392 | 33588 ft | 456 kts | 138° |
| 2026-05-06 15:03 | 19.60392 | 72.23648 | 33351 ft | 448 kts | 139° |
| 2026-05-06 15:03 | 19.58098 | 72.25851 | 32995 ft | 443 kts | 139° |
| 2026-05-06 15:03 | 19.55804 | 72.28036 | 32400 ft | 445 kts | 139° |
| 2026-05-06 15:03 | 19.53491 | 72.30227 | 31831 ft | 446 kts | 139° |
| 2026-05-06 15:04 | 19.51175 | 72.32418 | 31273 ft | 447 kts | 139° |
| 2026-05-06 15:04 | 19.48854 | 72.34613 | 30727 ft | 448 kts | 139° |
| 2026-05-06 15:04 | 19.46528 | 72.36812 | 30181 ft | 448 kts | 139° |
| 2026-05-06 15:04 | 19.44200 | 72.39015 | 29628 ft | 449 kts | 139° |
| 2026-05-06 15:05 | 19.41869 | 72.41220 | 29005 ft | 449 kts | 139° |
| 2026-05-06 15:05 | 19.39544 | 72.43419 | 28388 ft | 449 kts | 139° |
| 2026-05-06 15:05 | 19.37209 | 72.45627 | 27802 ft | 449 kts | 139° |
| 2026-05-06 15:05 | 19.34882 | 72.47827 | 27229 ft | 449 kts | 139° |
| 2026-05-06 15:06 | 19.32556 | 72.50025 | 26653 ft | 448 kts | 139° |
| 2026-05-06 15:06 | 19.30230 | 72.52221 | 26091 ft | 448 kts | 139° |
| 2026-05-06 15:06 | 19.27905 | 72.54417 | 25543 ft | 447 kts | 139° |
| 2026-05-06 15:06 | 19.25589 | 72.56602 | 25006 ft | 447 kts | 139° |
| 2026-05-06 15:07 | 19.23435 | 72.58941 | 24429 ft | 443 kts | 125° |
| 2026-05-06 15:07 | 19.22033 | 72.61828 | 23923 ft | 442 kts | 108° |
| 2026-05-06 15:07 | 19.21422 | 72.64982 | 23420 ft | 438 kts | 91° |
| 2026-05-06 15:07 | 19.21392 | 72.68180 | 22847 ft | 434 kts | 88° |
| 2026-05-06 15:08 | 19.21418 | 72.71344 | 22262 ft | 433 kts | 88° |
| 2026-05-06 15:08 | 19.21445 | 72.74527 | 21698 ft | 432 kts | 88° |
| 2026-05-06 15:08 | 19.21459 | 72.77704 | 21124 ft | 431 kts | 88° |
| 2026-05-06 15:08 | 19.21457 | 72.80872 | 20560 ft | 430 kts | 89° |
| 2026-05-06 15:09 | 19.21445 | 72.84030 | 20006 ft | 428 kts | 89° |
| 2026-05-06 15:09 | 19.21426 | 72.87178 | 19459 ft | 426 kts | 89° |
| 2026-05-06 15:09 | 19.21405 | 72.90224 | 18935 ft | 424 kts | 89° |
| 2026-05-06 15:09 | 19.21382 | 72.93286 | 18410 ft | 422 kts | 89° |
| 2026-05-06 15:10 | 19.21359 | 72.96384 | 17858 ft | 420 kts | 89° |
| 2026-05-06 15:10 | 19.21336 | 72.99451 | 17253 ft | 417 kts | 90° |
| 2026-05-06 15:10 | 19.21313 | 73.02517 | 16662 ft | 414 kts | 90° |
| 2026-05-06 15:10 | 19.21289 | 73.05551 | 16080 ft | 411 kts | 90° |
| 2026-05-06 15:11 | 19.21266 | 73.08564 | 15512 ft | 408 kts | 90° |
| 2026-05-06 15:11 | 19.21243 | 73.11556 | 14951 ft | 405 kts | 90° |
| 2026-05-06 15:11 | 19.21219 | 73.14486 | 14373 ft | 386 kts | 90° |
| 2026-05-06 15:11 | 19.21226 | 73.17184 | 13812 ft | 360 kts | 90° |
| 2026-05-06 15:12 | 19.21255 | 73.19747 | 13213 ft | 338 kts | 90° |
| 2026-05-06 15:12 | 19.21286 | 73.22169 | 12595 ft | 321 kts | 90° |
| 2026-05-06 15:12 | 19.21314 | 73.24480 | 11991 ft | 307 kts | 90° |
| 2026-05-06 15:12 | 19.21339 | 73.26692 | 11406 ft | 296 kts | 90° |
| 2026-05-06 15:13 | 19.21361 | 73.28841 | 10826 ft | 289 kts | 90° |
| 2026-05-06 15:13 | 19.21382 | 73.30965 | 10283 ft | 292 kts | 90° |
| 2026-05-06 15:13 | 19.21384 | 73.33121 | 9736 ft | 294 kts | 95° |
| 2026-05-06 15:13 | 19.20765 | 73.35160 | 9060 ft | 295 kts | 126° |
| 2026-05-06 15:14 | 19.19237 | 73.36564 | 8337 ft | 294 kts | 155° |
| 2026-05-06 15:14 | 19.17274 | 73.37093 | 7647 ft | 293 kts | 179° |
| 2026-05-06 15:14 | 19.15272 | 73.36772 | 6944 ft | 291 kts | 204° |
| 2026-05-06 15:14 | 19.13665 | 73.35642 | 6859 ft | 273 kts | 228° |
| 2026-05-06 15:15 | 19.12584 | 73.34046 | 6701 ft | 262 kts | 246° |
| 2026-05-06 15:15 | 19.12127 | 73.32230 | 6496 ft | 255 kts | 263° |
| 2026-05-06 15:15 | 19.11904 | 73.30341 | 6289 ft | 263 kts | 264° |
| 2026-05-06 15:15 | 19.11691 | 73.28408 | 6020 ft | 265 kts | 264° |
| 2026-05-06 15:16 | 19.11477 | 73.26483 | 5754 ft | 262 kts | 264° |
| 2026-05-06 15:16 | 19.11260 | 73.24575 | 5505 ft | 260 kts | 264° |
| 2026-05-06 15:16 | 19.11142 | 73.23541 | 5372 ft | 258 kts | 264° |
| 2026-05-06 15:16 | 19.10921 | 73.21654 | 5117 ft | 256 kts | 264° |
| 2026-05-06 15:17 | 19.10703 | 73.19800 | 4877 ft | 251 kts | 264° |
| 2026-05-06 15:17 | 19.10489 | 73.18005 | 4828 ft | 249 kts | 264° |
| 2026-05-06 15:17 | 19.10269 | 73.16146 | 4615 ft | 258 kts | 264° |
| 2026-05-06 15:17 | 19.10044 | 73.14275 | 4396 ft | 256 kts | 264° |
| 2026-05-06 15:18 | 19.09818 | 73.12413 | 4155 ft | 253 kts | 265° |
| 2026-05-06 15:18 | 19.09596 | 73.10574 | 3911 ft | 251 kts | 264° |
| 2026-05-06 15:18 | 19.09376 | 73.08760 | 3679 ft | 248 kts | 265° |
| 2026-05-06 15:18 | 19.09191 | 73.06960 | 3419 ft | 246 kts | 268° |
| 2026-05-06 15:19 | 19.09134 | 73.05163 | 3126 ft | 245 kts | 271° |
| 2026-05-06 15:19 | 19.09115 | 73.03480 | 2859 ft | 224 kts | 272° |
| 2026-05-06 15:19 | 19.09096 | 73.01960 | 2586 ft | 200 kts | 271° |
| 2026-05-06 15:19 | 19.09075 | 73.00525 | 2345 ft | 190 kts | 272° |
| 2026-05-06 15:20 | 19.09057 | 72.99154 | 2078 ft | 186 kts | 272° |
| 2026-05-06 15:20 | 19.09037 | 72.97799 | 1856 ft | 184 kts | 271° |
| 2026-05-06 15:20 | 19.09017 | 72.96479 | 1615 ft | 172 kts | 271° |
| 2026-05-06 15:20 | 19.08999 | 72.95288 | 1404 ft | 153 kts | 271° |
| 2026-05-06 15:21 | 19.08983 | 72.94233 | 1211 ft | 142 kts | 272° |
| 2026-05-06 15:21 | 19.08969 | 72.93168 | 1054 ft | 146 kts | 270° |
| 2026-05-06 15:21 | 19.08952 | 72.92092 | 880 ft | 146 kts | 271° |
| 2026-05-06 15:21 | 19.08936 | 72.91038 | 676 ft | 140 kts | 270° |
| 2026-05-06 15:22 | 19.08922 | 72.90020 | 556 ft | 143 kts | 271° |
| 2026-05-06 15:22 | 19.08904 | 72.88993 | 325 ft | 144 kts | 269° |
| 2026-05-06 15:22 | 19.08890 | 72.87982 | 139 ft | 139 kts | 270° |
| 2026-05-06 15:22 | 19.08877 | 72.87058 | 53 ft | 132 kts | 270° |
| 2026-05-06 15:23 | 19.08865 | 72.86241 | 50 ft | 107 kts | 269° |
| 2026-05-06 15:23 | 19.08854 | 72.85593 | 48 ft | 78 kts | 268° |
| 2026-05-06 15:23 | 19.08960 | 72.85251 | 49 ft | 22 kts | 328° |
| 2026-05-06 15:23 | 19.09008 | 72.85274 | 50 ft | 9 kts | 54° |
| 2026-05-06 15:24 | 19.09022 | 72.85336 | 50 ft | 9 kts | 83° |
| 2026-05-06 15:24 | 19.09024 | 72.85406 | 49 ft | 10 kts | 91° |
| 2026-05-06 15:24 | 19.09025 | 72.85477 | 49 ft | 10 kts | 88° |
| 2026-05-06 15:24 | 19.09027 | 72.85553 | 53 ft | 11 kts | 88° |
| 2026-05-06 15:25 | 19.09028 | 72.85636 | 54 ft | 11 kts | 90° |
| 2026-05-06 15:25 | 19.09029 | 72.85720 | 54 ft | 11 kts | 89° |
| 2026-05-06 15:25 | 19.09031 | 72.85806 | 54 ft | 15 kts | 88° |
| 2026-05-06 15:25 | 19.09035 | 72.86014 | 53 ft | 40 kts | 89° |
| 2026-05-06 15:26 | 19.09040 | 72.86321 | 48 ft | 41 kts | 90° |
| 2026-05-06 15:26 | 19.09041 | 72.86579 | 49 ft | 31 kts | 89° |
| 2026-05-06 15:26 | 19.09066 | 72.86777 | 52 ft | 24 kts | 50° |
| 2026-05-06 15:26 | 19.09132 | 72.86895 | 49 ft | 16 kts | 84° |
| 2026-05-06 15:27 | 19.09135 | 72.87015 | 54 ft | 16 kts | 87° |
| 2026-05-06 15:27 | 19.09192 | 72.87081 | 51 ft | 12 kts | 20° |
| 2026-05-06 15:27 | 19.09220 | 72.87103 | 48 ft | 3 kts | 50° |
| 2026-05-06 15:27 | 19.09239 | 72.87119 | 50 ft | 4 kts | 38° |
| 2026-05-06 15:28 | 19.09264 | 72.87138 | 49 ft | 5 kts | 33° |
| 2026-05-06 15:28 | 19.09302 | 72.87143 | 52 ft | 1 kts | 2° |
| 2026-05-06 15:28 | 19.09313 | 72.87144 | 48 ft | 2 kts | 2° |
| 2026-05-06 15:28 | 19.09323 | 72.87144 | 48 ft | 0 kts | 1° |